sensor_id;sensor_type;location;lat;lon;timestamp;temperature;humidity
6210;DHT22;3138;52.550;13.148;2023-06-14T00:01:21;13.90;73.70
6210;DHT22;3138;52.550;13.148;2023-06-14T00:03:48;13.80;76.30
6210;DHT22;3138;52.550;13.148;2023-06-14T00:06:14;13.80;75.60
6210;DHT22;3138;52.550;13.148;2023-06-14T00:08:41;13.70;77.20
6210;DHT22;3138;52.550;13.148;2023-06-14T00:11:09;13.70;81.10
6210;DHT22;3138;52.550;13.148;2023-06-14T00:13:36;13.70;82.00
6210;DHT22;3138;52.550;13.148;2023-06-14T00:16:03;13.70;84.00
6210;DHT22;3138;52.550;13.148;2023-06-14T00:18:30;13.60;85.20
6210;DHT22;3138;52.550;13.148;2023-06-14T00:20:58;13.60;87.60
6210;DHT22;3138;52.550;13.148;2023-06-14T00:23:25;13.50;89.10
6210;DHT22;3138;52.550;13.148;2023-06-14T00:25:52;13.40;90.60
6210;DHT22;3138;52.550;13.148;2023-06-14T00:28:20;13.40;91.20
6210;DHT22;3138;52.550;13.148;2023-06-14T00:30:47;13.30;92.60
6210;DHT22;3138;52.550;13.148;2023-06-14T00:33:14;13.30;93.40
6210;DHT22;3138;52.550;13.148;2023-06-14T00:35:40;13.10;94.10
6210;DHT22;3138;52.550;13.148;2023-06-14T00:38:07;13.10;95.80
6210;DHT22;3138;52.550;13.148;2023-06-14T00:40:34;13.00;98.10
6210;DHT22;3138;52.550;13.148;2023-06-14T00:43:01;13.20;99.70
6210;DHT22;3138;52.550;13.148;2023-06-14T00:45:29;13.10;99.20
6210;DHT22;3138;52.550;13.148;2023-06-14T00:48:01;13.00;99.90
6210;DHT22;3138;52.550;13.148;2023-06-14T00:50:29;13.00;99.90
6210;DHT22;3138;52.550;13.148;2023-06-14T00:52:58;13.00;99.90
6210;DHT22;3138;52.550;13.148;2023-06-14T00:55:26;13.00;99.90
6210;DHT22;3138;52.550;13.148;2023-06-14T00:57:54;12.90;99.90
6210;DHT22;3138;52.550;13.148;2023-06-14T01:00:21;12.90;99.90
6210;DHT22;3138;52.550;13.148;2023-06-14T01:02:49;12.80;99.90
6210;DHT22;3138;52.550;13.148;2023-06-14T01:05:16;12.80;99.90
6210;DHT22;3138;52.550;13.148;2023-06-14T01:07:55;12.80;99.90
6210;DHT22;3138;52.550;13.148;2023-06-14T01:10:34;12.80;99.90
6210;DHT22;3138;52.550;13.148;2023-06-14T01:13:07;12.80;99.90
6210;DHT22;3138;52.550;13.148;2023-06-14T01:15:38;12.90;99.90
6210;DHT22;3138;52.550;13.148;2023-06-14T01:18:07;12.80;99.90
6210;DHT22;3138;52.550;13.148;2023-06-14T01:20:34;12.90;99.90
6210;DHT22;3138;52.550;13.148;2023-06-14T01:23:04;12.90;99.90
6210;DHT22;3138;52.550;13.148;2023-06-14T01:25:31;12.70;99.90
6210;DHT22;3138;52.550;13.148;2023-06-14T01:28:01;12.80;99.90
6210;DHT22;3138;52.550;13.148;2023-06-14T01:30:29;12.80;99.90
6210;DHT22;3138;52.550;13.148;2023-06-14T01:32:58;12.70;99.90
6210;DHT22;3138;52.550;13.148;2023-06-14T01:35:25;12.70;99.90
6210;DHT22;3138;52.550;13.148;2023-06-14T01:37:53;12.60;99.90
6210;DHT22;3138;52.550;13.148;2023-06-14T01:40:22;12.70;99.90
6210;DHT22;3138;52.550;13.148;2023-06-14T01:42:50;12.70;99.90
6210;DHT22;3138;52.550;13.148;2023-06-14T01:45:18;12.60;99.90
6210;DHT22;3138;52.550;13.148;2023-06-14T01:47:46;12.70;99.90
6210;DHT22;3138;52.550;13.148;2023-06-14T01:50:13;12.60;99.90
6210;DHT22;3138;52.550;13.148;2023-06-14T01:52:40;12.50;99.90
6210;DHT22;3138;52.550;13.148;2023-06-14T01:55:08;12.50;99.90
6210;DHT22;3138;52.550;13.148;2023-06-14T01:57:36;12.50;99.90
6210;DHT22;3138;52.550;13.148;2023-06-14T02:00:03;12.50;99.90
6210;DHT22;3138;52.550;13.148;2023-06-14T02:02:33;12.50;99.90
6210;DHT22;3138;52.550;13.148;2023-06-14T02:05:01;12.40;99.90
6210;DHT22;3138;52.550;13.148;2023-06-14T02:07:27;12.30;99.90
6210;DHT22;3138;52.550;13.148;2023-06-14T02:09:54;12.10;99.90
6210;DHT22;3138;52.550;13.148;2023-06-14T02:12:21;12.10;99.90
6210;DHT22;3138;52.550;13.148;2023-06-14T02:14:49;11.90;99.90
6210;DHT22;3138;52.550;13.148;2023-06-14T02:17:16;11.80;99.90
6210;DHT22;3138;52.550;13.148;2023-06-14T02:19:43;11.70;99.90
6210;DHT22;3138;52.550;13.148;2023-06-14T02:22:10;11.70;99.90
6210;DHT22;3138;52.550;13.148;2023-06-14T02:24:37;11.60;99.90
6210;DHT22;3138;52.550;13.148;2023-06-14T02:27:05;11.60;99.90
6210;DHT22;3138;52.550;13.148;2023-06-14T02:29:32;11.50;99.90
6210;DHT22;3138;52.550;13.148;2023-06-14T02:32:00;11.40;99.90
6210;DHT22;3138;52.550;13.148;2023-06-14T02:34:27;11.40;99.90
6210;DHT22;3138;52.550;13.148;2023-06-14T02:36:56;11.40;99.90
6210;DHT22;3138;52.550;13.148;2023-06-14T02:39:24;11.50;99.90
6210;DHT22;3138;52.550;13.148;2023-06-14T02:41:51;11.50;99.90
6210;DHT22;3138;52.550;13.148;2023-06-14T02:44:18;11.50;99.90
6210;DHT22;3138;52.550;13.148;2023-06-14T02:46:45;11.40;99.90
6210;DHT22;3138;52.550;13.148;2023-06-14T02:49:13;11.20;99.90
6210;DHT22;3138;52.550;13.148;2023-06-14T02:51:40;11.20;99.90
6210;DHT22;3138;52.550;13.148;2023-06-14T02:54:07;11.20;99.90
6210;DHT22;3138;52.550;13.148;2023-06-14T02:56:34;11.20;99.90
6210;DHT22;3138;52.550;13.148;2023-06-14T02:59:01;11.20;99.90
6210;DHT22;3138;52.550;13.148;2023-06-14T03:01:28;11.20;99.90
6210;DHT22;3138;52.550;13.148;2023-06-14T03:04:00;11.20;99.90
6210;DHT22;3138;52.550;13.148;2023-06-14T03:06:28;11.10;99.90
6210;DHT22;3138;52.550;13.148;2023-06-14T03:08:56;11.10;99.90
6210;DHT22;3138;52.550;13.148;2023-06-14T03:11:25;11.10;99.90
6210;DHT22;3138;52.550;13.148;2023-06-14T03:13:52;11.20;99.90
6210;DHT22;3138;52.550;13.148;2023-06-14T03:16:19;11.30;99.90
6210;DHT22;3138;52.550;13.148;2023-06-14T03:18:47;11.20;99.90
6210;DHT22;3138;52.550;13.148;2023-06-14T03:21:14;11.30;99.90
6210;DHT22;3138;52.550;13.148;2023-06-14T03:23:43;11.40;99.90
6210;DHT22;3138;52.550;13.148;2023-06-14T03:26:10;11.30;99.90
6210;DHT22;3138;52.550;13.148;2023-06-14T03:28:38;11.30;99.90
6210;DHT22;3138;52.550;13.148;2023-06-14T03:31:05;11.50;99.90
6210;DHT22;3138;52.550;13.148;2023-06-14T03:33:32;11.70;99.90
6210;DHT22;3138;52.550;13.148;2023-06-14T03:35:59;12.10;99.90
6210;DHT22;3138;52.550;13.148;2023-06-14T03:38:26;12.80;99.90
6210;DHT22;3138;52.550;13.148;2023-06-14T03:40:54;13.80;99.90
6210;DHT22;3138;52.550;13.148;2023-06-14T03:43:21;14.60;99.90
6210;DHT22;3138;52.550;13.148;2023-06-14T03:45:48;15.30;99.90
6210;DHT22;3138;52.550;13.148;2023-06-14T03:48:15;15.40;99.90
6210;DHT22;3138;52.550;13.148;2023-06-14T03:50:41;15.80;99.90
6210;DHT22;3138;52.550;13.148;2023-06-14T03:53:10;15.70;99.90
6210;DHT22;3138;52.550;13.148;2023-06-14T03:55:37;16.00;99.00
6210;DHT22;3138;52.550;13.148;2023-06-14T03:58:06;15.90;99.90
6210;DHT22;3138;52.550;13.148;2023-06-14T04:00:33;16.30;96.70
6210;DHT22;3138;52.550;13.148;2023-06-14T04:03:01;16.50;96.30
6210;DHT22;3138;52.550;13.148;2023-06-14T04:05:30;16.60;94.70
6210;DHT22;3138;52.550;13.148;2023-06-14T04:07:57;16.50;91.90
6210;DHT22;3138;52.550;13.148;2023-06-14T04:10:26;15.70;92.90
6210;DHT22;3138;52.550;13.148;2023-06-14T04:12:53;15.00;94.80
6210;DHT22;3138;52.550;13.148;2023-06-14T04:15:21;14.70;99.90
6210;DHT22;3138;52.550;13.148;2023-06-14T04:17:48;14.80;99.90
6210;DHT22;3138;52.550;13.148;2023-06-14T04:20:16;15.00;99.90
6210;DHT22;3138;52.550;13.148;2023-06-14T04:22:43;15.00;99.90
6210;DHT22;3138;52.550;13.148;2023-06-14T04:25:10;15.00;99.90
6210;DHT22;3138;52.550;13.148;2023-06-14T04:27:37;15.10;99.90
6210;DHT22;3138;52.550;13.148;2023-06-14T04:30:06;15.00;99.90
6210;DHT22;3138;52.550;13.148;2023-06-14T04:32:35;15.00;99.90
6210;DHT22;3138;52.550;13.148;2023-06-14T04:35:05;15.20;99.90
6210;DHT22;3138;52.550;13.148;2023-06-14T04:37:32;15.20;99.90
6210;DHT22;3138;52.550;13.148;2023-06-14T04:40:00;15.00;99.90
6210;DHT22;3138;52.550;13.148;2023-06-14T04:42:30;15.00;99.90
6210;DHT22;3138;52.550;13.148;2023-06-14T04:44:57;15.20;99.90
6210;DHT22;3138;52.550;13.148;2023-06-14T04:47:24;15.30;99.90
6210;DHT22;3138;52.550;13.148;2023-06-14T04:49:57;15.50;99.90
6210;DHT22;3138;52.550;13.148;2023-06-14T04:52:26;15.60;99.90
6210;DHT22;3138;52.550;13.148;2023-06-14T04:54:55;15.70;99.00
6210;DHT22;3138;52.550;13.148;2023-06-14T04:57:22;15.70;99.70
6210;DHT22;3138;52.550;13.148;2023-06-14T04:59:51;16.00;99.40
6210;DHT22;3138;52.550;13.148;2023-06-14T05:02:20;15.80;98.70
6210;DHT22;3138;52.550;13.148;2023-06-14T05:04:47;15.90;99.20
6210;DHT22;3138;52.550;13.148;2023-06-14T05:07:16;15.90;98.70
6210;DHT22;3138;52.550;13.148;2023-06-14T05:09:43;15.80;97.80
6210;DHT22;3138;52.550;13.148;2023-06-14T05:12:10;15.80;97.60
6210;DHT22;3138;52.550;13.148;2023-06-14T05:14:37;16.00;98.10
6210;DHT22;3138;52.550;13.148;2023-06-14T05:17:05;16.10;96.20
6210;DHT22;3138;52.550;13.148;2023-06-14T05:19:32;16.20;95.70
6210;DHT22;3138;52.550;13.148;2023-06-14T05:21:59;16.10;95.90
6210;DHT22;3138;52.550;13.148;2023-06-14T05:24:28;16.50;95.30
6210;DHT22;3138;52.550;13.148;2023-06-14T05:26:56;16.60;95.40
6210;DHT22;3138;52.550;13.148;2023-06-14T05:29:22;16.60;92.70
6210;DHT22;3138;52.550;13.148;2023-06-14T05:31:49;16.50;93.00
6210;DHT22;3138;52.550;13.148;2023-06-14T05:34:16;16.50;93.20
6210;DHT22;3138;52.550;13.148;2023-06-14T05:36:43;16.30;92.30
6210;DHT22;3138;52.550;13.148;2023-06-14T05:39:10;15.90;93.60
6210;DHT22;3138;52.550;13.148;2023-06-14T05:41:38;15.90;95.00
6210;DHT22;3138;52.550;13.148;2023-06-14T05:44:05;15.70;96.10
6210;DHT22;3138;52.550;13.148;2023-06-14T05:46:33;15.50;98.10
6210;DHT22;3138;52.550;13.148;2023-06-14T05:49:00;15.50;99.30
6210;DHT22;3138;52.550;13.148;2023-06-14T05:51:26;15.60;99.60
6210;DHT22;3138;52.550;13.148;2023-06-14T05:53:54;15.80;99.80
6210;DHT22;3138;52.550;13.148;2023-06-14T05:56:21;15.90;98.80
6210;DHT22;3138;52.550;13.148;2023-06-14T05:58:50;16.00;99.30
6210;DHT22;3138;52.550;13.148;2023-06-14T06:01:16;16.00;98.10
6210;DHT22;3138;52.550;13.148;2023-06-14T06:03:43;16.00;98.30
6210;DHT22;3138;52.550;13.148;2023-06-14T06:06:11;16.00;97.70
6210;DHT22;3138;52.550;13.148;2023-06-14T06:08:38;16.10;97.70
6210;DHT22;3138;52.550;13.148;2023-06-14T06:11:06;16.20;98.40
6210;DHT22;3138;52.550;13.148;2023-06-14T06:13:32;16.30;97.70
6210;DHT22;3138;52.550;13.148;2023-06-14T06:16:02;16.30;96.30
6210;DHT22;3138;52.550;13.148;2023-06-14T06:18:28;16.30;95.90
6210;DHT22;3138;52.550;13.148;2023-06-14T06:20:55;16.20;96.10
6210;DHT22;3138;52.550;13.148;2023-06-14T06:23:22;16.10;96.40
6210;DHT22;3138;52.550;13.148;2023-06-14T06:25:49;16.20;97.20
6210;DHT22;3138;52.550;13.148;2023-06-14T06:28:16;16.40;97.10
6210;DHT22;3138;52.550;13.148;2023-06-14T06:30:43;16.60;95.90
6210;DHT22;3138;52.550;13.148;2023-06-14T06:33:11;16.10;95.70
6210;DHT22;3138;52.550;13.148;2023-06-14T06:35:39;16.30;95.90
6210;DHT22;3138;52.550;13.148;2023-06-14T06:38:06;16.40;96.70
6210;DHT22;3138;52.550;13.148;2023-06-14T06:40:34;16.60;96.50
6210;DHT22;3138;52.550;13.148;2023-06-14T06:43:02;16.20;94.70
6210;DHT22;3138;52.550;13.148;2023-06-14T06:45:29;16.50;96.60
6210;DHT22;3138;52.550;13.148;2023-06-14T06:47:56;16.40;95.10
6210;DHT22;3138;52.550;13.148;2023-06-14T06:50:24;16.50;94.70
6210;DHT22;3138;52.550;13.148;2023-06-14T06:52:51;16.40;94.00
6210;DHT22;3138;52.550;13.148;2023-06-14T06:55:19;16.80;94.50
6210;DHT22;3138;52.550;13.148;2023-06-14T06:57:45;16.90;93.00
6210;DHT22;3138;52.550;13.148;2023-06-14T07:00:13;16.90;93.20
6210;DHT22;3138;52.550;13.148;2023-06-14T07:02:39;16.90;92.60
6210;DHT22;3138;52.550;13.148;2023-06-14T07:05:06;16.90;93.10
6210;DHT22;3138;52.550;13.148;2023-06-14T07:07:35;17.10;91.50
6210;DHT22;3138;52.550;13.148;2023-06-14T07:10:02;17.10;91.80
6210;DHT22;3138;52.550;13.148;2023-06-14T07:12:30;17.20;92.30
6210;DHT22;3138;52.550;13.148;2023-06-14T07:14:59;17.50;90.80
6210;DHT22;3138;52.550;13.148;2023-06-14T07:17:26;17.70;89.40
6210;DHT22;3138;52.550;13.148;2023-06-14T07:19:53;17.70;87.50
6210;DHT22;3138;52.550;13.148;2023-06-14T07:22:20;17.90;86.90
6210;DHT22;3138;52.550;13.148;2023-06-14T07:24:48;17.70;86.30
6210;DHT22;3138;52.550;13.148;2023-06-14T07:27:15;17.90;83.00
6210;DHT22;3138;52.550;13.148;2023-06-14T07:29:42;18.10;83.60
6210;DHT22;3138;52.550;13.148;2023-06-14T07:32:09;18.10;81.70
6210;DHT22;3138;52.550;13.148;2023-06-14T07:34:35;18.10;82.70
6210;DHT22;3138;52.550;13.148;2023-06-14T07:37:03;17.90;83.30
6210;DHT22;3138;52.550;13.148;2023-06-14T07:39:30;18.10;82.70
6210;DHT22;3138;52.550;13.148;2023-06-14T07:41:58;18.10;82.00
6210;DHT22;3138;52.550;13.148;2023-06-14T07:44:25;18.20;82.60
6210;DHT22;3138;52.550;13.148;2023-06-14T07:46:51;18.30;81.70
6210;DHT22;3138;52.550;13.148;2023-06-14T07:49:18;18.20;80.00
6210;DHT22;3138;52.550;13.148;2023-06-14T07:51:45;18.30;80.60
6210;DHT22;3138;52.550;13.148;2023-06-14T07:54:13;18.40;79.20
6210;DHT22;3138;52.550;13.148;2023-06-14T07:56:41;18.30;79.90
6210;DHT22;3138;52.550;13.148;2023-06-14T07:59:09;18.50;81.50
6210;DHT22;3138;52.550;13.148;2023-06-14T08:01:36;18.40;74.90
6210;DHT22;3138;52.550;13.148;2023-06-14T08:04:05;18.70;77.20
6210;DHT22;3138;52.550;13.148;2023-06-14T08:06:31;19.50;71.80
6210;DHT22;3138;52.550;13.148;2023-06-14T08:08:59;20.20;66.40
6210;DHT22;3138;52.550;13.148;2023-06-14T08:11:26;19.80;62.60
6210;DHT22;3138;52.550;13.148;2023-06-14T08:13:53;20.20;64.10
6210;DHT22;3138;52.550;13.148;2023-06-14T08:16:21;19.80;61.30
6210;DHT22;3138;52.550;13.148;2023-06-14T08:18:48;19.90;61.00
6210;DHT22;3138;52.550;13.148;2023-06-14T08:21:15;20.30;59.30
6210;DHT22;3138;52.550;13.148;2023-06-14T08:23:43;19.60;59.00
6210;DHT22;3138;52.550;13.148;2023-06-14T08:26:10;19.70;58.80
6210;DHT22;3138;52.550;13.148;2023-06-14T08:28:37;19.80;58.90
6210;DHT22;3138;52.550;13.148;2023-06-14T08:31:04;20.10;58.10
6210;DHT22;3138;52.550;13.148;2023-06-14T08:33:32;20.40;56.60
6210;DHT22;3138;52.550;13.148;2023-06-14T08:36:00;20.60;53.90
6210;DHT22;3138;52.550;13.148;2023-06-14T08:38:27;20.60;53.40
6210;DHT22;3138;52.550;13.148;2023-06-14T08:40:57;20.60;51.00
6210;DHT22;3138;52.550;13.148;2023-06-14T08:43:24;20.70;51.20
6210;DHT22;3138;52.550;13.148;2023-06-14T08:45:56;20.90;52.00
6210;DHT22;3138;52.550;13.148;2023-06-14T08:48:26;21.20;47.90
6210;DHT22;3138;52.550;13.148;2023-06-14T08:50:56;21.50;48.20
6210;DHT22;3138;52.550;13.148;2023-06-14T08:53:28;21.60;45.20
6210;DHT22;3138;52.550;13.148;2023-06-14T08:55:57;21.70;45.00
6210;DHT22;3138;52.550;13.148;2023-06-14T08:58:27;22.10;47.70
6210;DHT22;3138;52.550;13.148;2023-06-14T09:00:55;22.50;43.70
6210;DHT22;3138;52.550;13.148;2023-06-14T09:03:23;22.30;40.30
6210;DHT22;3138;52.550;13.148;2023-06-14T09:05:57;21.70;40.90
6210;DHT22;3138;52.550;13.148;2023-06-14T09:08:25;22.20;45.60
6210;DHT22;3138;52.550;13.148;2023-06-14T09:10:52;21.90;42.70
6210;DHT22;3138;52.550;13.148;2023-06-14T09:13:19;21.80;42.10
6210;DHT22;3138;52.550;13.148;2023-06-14T09:15:45;21.50;40.40
6210;DHT22;3138;52.550;13.148;2023-06-14T09:18:12;21.30;42.50
6210;DHT22;3138;52.550;13.148;2023-06-14T09:20:40;21.50;42.10
6210;DHT22;3138;52.550;13.148;2023-06-14T09:23:08;21.60;42.60
6210;DHT22;3138;52.550;13.148;2023-06-14T09:25:42;21.40;41.80
6210;DHT22;3138;52.550;13.148;2023-06-14T09:28:10;21.30;42.60
6210;DHT22;3138;52.550;13.148;2023-06-14T09:30:37;21.30;44.50
6210;DHT22;3138;52.550;13.148;2023-06-14T09:33:04;21.70;43.30
6210;DHT22;3138;52.550;13.148;2023-06-14T09:35:31;21.60;40.30
6210;DHT22;3138;52.550;13.148;2023-06-14T09:37:58;21.30;38.40
6210;DHT22;3138;52.550;13.148;2023-06-14T09:40:26;21.40;40.10
6210;DHT22;3138;52.550;13.148;2023-06-14T09:42:53;21.50;39.70
6210;DHT22;3138;52.550;13.148;2023-06-14T09:45:24;20.90;39.20
6210;DHT22;3138;52.550;13.148;2023-06-14T09:47:55;21.30;40.90
6210;DHT22;3138;52.550;13.148;2023-06-14T09:50:22;21.70;40.40
6210;DHT22;3138;52.550;13.148;2023-06-14T09:52:50;21.70;38.60
6210;DHT22;3138;52.550;13.148;2023-06-14T09:55:19;21.70;39.00
6210;DHT22;3138;52.550;13.148;2023-06-14T09:57:48;21.60;36.00
6210;DHT22;3138;52.550;13.148;2023-06-14T10:00:18;21.80;35.90
6210;DHT22;3138;52.550;13.148;2023-06-14T10:02:48;22.30;35.00
6210;DHT22;3138;52.550;13.148;2023-06-14T10:05:18;22.10;36.90
6210;DHT22;3138;52.550;13.148;2023-06-14T10:07:52;22.20;34.10
6210;DHT22;3138;52.550;13.148;2023-06-14T10:10:19;21.90;33.80
6210;DHT22;3138;52.550;13.148;2023-06-14T10:12:47;22.20;35.30
6210;DHT22;3138;52.550;13.148;2023-06-14T10:15:19;21.70;33.50
6210;DHT22;3138;52.550;13.148;2023-06-14T10:17:50;22.20;34.40
6210;DHT22;3138;52.550;13.148;2023-06-14T10:20:28;22.30;34.00
6210;DHT22;3138;52.550;13.148;2023-06-14T10:23:00;22.00;32.80
6210;DHT22;3138;52.550;13.148;2023-06-14T10:25:29;22.20;33.20
6210;DHT22;3138;52.550;13.148;2023-06-14T10:28:14;22.20;34.20
6210;DHT22;3138;52.550;13.148;2023-06-14T10:31:03;22.10;34.20
6210;DHT22;3138;52.550;13.148;2023-06-14T10:33:30;22.30;34.70
6210;DHT22;3138;52.550;13.148;2023-06-14T10:36:24;22.20;33.30
6210;DHT22;3138;52.550;13.148;2023-06-14T10:39:00;22.30;34.60
6210;DHT22;3138;52.550;13.148;2023-06-14T10:41:28;22.60;33.50
6210;DHT22;3138;52.550;13.148;2023-06-14T10:47:00;22.30;30.00
6210;DHT22;3138;52.550;13.148;2023-06-14T10:49:38;22.40;30.70
6210;DHT22;3138;52.550;13.148;2023-06-14T10:52:08;22.50;29.80
6210;DHT22;3138;52.550;13.148;2023-06-14T10:55:05;22.20;29.50
6210;DHT22;3138;52.550;13.148;2023-06-14T10:57:35;22.20;28.90
6210;DHT22;3138;52.550;13.148;2023-06-14T11:00:03;22.30;29.40
6210;DHT22;3138;52.550;13.148;2023-06-14T11:05:49;22.20;26.80
6210;DHT22;3138;52.550;13.148;2023-06-14T11:11:32;23.20;26.70
6210;DHT22;3138;52.550;13.148;2023-06-14T11:13:59;22.90;26.30
6210;DHT22;3138;52.550;13.148;2023-06-14T11:16:27;23.20;27.00
6210;DHT22;3138;52.550;13.148;2023-06-14T11:18:54;23.00;25.40
6210;DHT22;3138;52.550;13.148;2023-06-14T11:21:24;23.30;29.50
6210;DHT22;3138;52.550;13.148;2023-06-14T11:23:56;23.00;24.00
6210;DHT22;3138;52.550;13.148;2023-06-14T11:26:27;23.70;26.80
6210;DHT22;3138;52.550;13.148;2023-06-14T11:28:57;23.80;24.00
6210;DHT22;3138;52.550;13.148;2023-06-14T11:31:24;24.20;22.50
6210;DHT22;3138;52.550;13.148;2023-06-14T11:33:53;24.00;20.10
6210;DHT22;3138;52.550;13.148;2023-06-14T11:36:22;23.70;18.50
6210;DHT22;3138;52.550;13.148;2023-06-14T11:38:49;23.70;18.20
6210;DHT22;3138;52.550;13.148;2023-06-14T11:41:17;23.90;17.60
6210;DHT22;3138;52.550;13.148;2023-06-14T11:43:44;24.40;17.10
6210;DHT22;3138;52.550;13.148;2023-06-14T11:46:14;24.10;16.40
6210;DHT22;3138;52.550;13.148;2023-06-14T11:48:43;23.70;15.00
6210;DHT22;3138;52.550;13.148;2023-06-14T11:51:11;23.70;14.60
6210;DHT22;3138;52.550;13.148;2023-06-14T11:53:39;23.40;14.90
6210;DHT22;3138;52.550;13.148;2023-06-14T11:56:06;23.50;15.20
6210;DHT22;3138;52.550;13.148;2023-06-14T11:58:33;23.60;16.40
6210;DHT22;3138;52.550;13.148;2023-06-14T12:01:00;23.90;16.40
6210;DHT22;3138;52.550;13.148;2023-06-14T12:03:29;24.30;11.40
6210;DHT22;3138;52.550;13.148;2023-06-14T12:06:06;24.00;9.60
6210;DHT22;3138;52.550;13.148;2023-06-14T12:08:34;24.20;12.30
6210;DHT22;3138;52.550;13.148;2023-06-14T12:11:10;24.50;10.90
6210;DHT22;3138;52.550;13.148;2023-06-14T12:13:38;24.90;13.60
6210;DHT22;3138;52.550;13.148;2023-06-14T12:16:07;25.30;10.70
6210;DHT22;3138;52.550;13.148;2023-06-14T12:18:35;25.20;9.30
6210;DHT22;3138;52.550;13.148;2023-06-14T12:21:03;24.20;4.40
6210;DHT22;3138;52.550;13.148;2023-06-14T12:23:45;24.20;7.00
6210;DHT22;3138;52.550;13.148;2023-06-14T12:26:17;23.80;4.70
6210;DHT22;3138;52.550;13.148;2023-06-14T12:28:45;23.50;4.70
6210;DHT22;3138;52.550;13.148;2023-06-14T12:31:14;23.60;5.60
6210;DHT22;3138;52.550;13.148;2023-06-14T12:33:41;23.60;6.80
6210;DHT22;3138;52.550;13.148;2023-06-14T12:36:10;24.00;4.00
6210;DHT22;3138;52.550;13.148;2023-06-14T12:38:37;24.20;4.90
6210;DHT22;3138;52.550;13.148;2023-06-14T12:41:04;24.40;4.60
6210;DHT22;3138;52.550;13.148;2023-06-14T12:43:32;24.50;5.70
6210;DHT22;3138;52.550;13.148;2023-06-14T12:45:59;24.30;3.70
6210;DHT22;3138;52.550;13.148;2023-06-14T12:48:26;24.30;3.60
6210;DHT22;3138;52.550;13.148;2023-06-14T12:50:55;25.10;6.60
6210;DHT22;3138;52.550;13.148;2023-06-14T12:53:22;25.50;2.40
6210;DHT22;3138;52.550;13.148;2023-06-14T12:55:48;25.90;3.00
6210;DHT22;3138;52.550;13.148;2023-06-14T12:58:15;25.70;1.00
6210;DHT22;3138;52.550;13.148;2023-06-14T13:00:46;25.00;1.00
6210;DHT22;3138;52.550;13.148;2023-06-14T13:03:13;24.80;1.00
6210;DHT22;3138;52.550;13.148;2023-06-14T13:05:40;25.10;1.00
6210;DHT22;3138;52.550;13.148;2023-06-14T13:08:08;25.10;1.00
6210;DHT22;3138;52.550;13.148;2023-06-14T13:10:36;25.30;1.00
6210;DHT22;3138;52.550;13.148;2023-06-14T13:13:03;25.30;1.00
6210;DHT22;3138;52.550;13.148;2023-06-14T13:15:30;25.80;1.00
6210;DHT22;3138;52.550;13.148;2023-06-14T13:17:58;26.20;1.00
6210;DHT22;3138;52.550;13.148;2023-06-14T13:20:25;26.60;1.00
6210;DHT22;3138;52.550;13.148;2023-06-14T13:22:52;26.80;1.00
6210;DHT22;3138;52.550;13.148;2023-06-14T13:25:19;26.40;1.00
6210;DHT22;3138;52.550;13.148;2023-06-14T13:27:48;25.90;1.00
6210;DHT22;3138;52.550;13.148;2023-06-14T13:30:15;26.40;1.00
6210;DHT22;3138;52.550;13.148;2023-06-14T13:32:42;26.30;1.00
6210;DHT22;3138;52.550;13.148;2023-06-14T13:35:10;26.00;1.00
6210;DHT22;3138;52.550;13.148;2023-06-14T13:37:37;26.00;1.00
6210;DHT22;3138;52.550;13.148;2023-06-14T13:40:05;26.20;1.00
6210;DHT22;3138;52.550;13.148;2023-06-14T13:42:32;26.30;1.00
6210;DHT22;3138;52.550;13.148;2023-06-14T13:44:59;26.40;1.00
6210;DHT22;3138;52.550;13.148;2023-06-14T13:47:26;26.30;1.00
6210;DHT22;3138;52.550;13.148;2023-06-14T13:49:52;26.40;1.00
6210;DHT22;3138;52.550;13.148;2023-06-14T13:52:21;25.60;1.00
6210;DHT22;3138;52.550;13.148;2023-06-14T13:54:48;25.30;1.00
6210;DHT22;3138;52.550;13.148;2023-06-14T13:57:15;25.00;1.00
6210;DHT22;3138;52.550;13.148;2023-06-14T13:59:42;24.90;1.00
6210;DHT22;3138;52.550;13.148;2023-06-14T14:02:09;24.50;1.00
6210;DHT22;3138;52.550;13.148;2023-06-14T14:04:38;24.40;1.00
6210;DHT22;3138;52.550;13.148;2023-06-14T14:07:06;24.20;1.00
6210;DHT22;3138;52.550;13.148;2023-06-14T14:09:35;24.20;1.00
6210;DHT22;3138;52.550;13.148;2023-06-14T14:12:03;24.30;1.00
6210;DHT22;3138;52.550;13.148;2023-06-14T14:14:31;23.90;1.00
6210;DHT22;3138;52.550;13.148;2023-06-14T14:16:58;24.20;1.00
6210;DHT22;3138;52.550;13.148;2023-06-14T14:19:24;24.30;1.00
6210;DHT22;3138;52.550;13.148;2023-06-14T14:21:51;24.60;1.00
6210;DHT22;3138;52.550;13.148;2023-06-14T14:24:19;24.10;1.00
6210;DHT22;3138;52.550;13.148;2023-06-14T14:26:47;23.80;1.00
6210;DHT22;3138;52.550;13.148;2023-06-14T14:29:15;23.50;1.00
6210;DHT22;3138;52.550;13.148;2023-06-14T14:31:42;23.20;1.00
6210;DHT22;3138;52.550;13.148;2023-06-14T14:34:09;22.80;1.00
6210;DHT22;3138;52.550;13.148;2023-06-14T14:36:36;22.70;1.00
6210;DHT22;3138;52.550;13.148;2023-06-14T14:39:03;22.80;1.00
6210;DHT22;3138;52.550;13.148;2023-06-14T14:41:30;22.60;1.00
6210;DHT22;3138;52.550;13.148;2023-06-14T14:43:58;22.70;1.00
6210;DHT22;3138;52.550;13.148;2023-06-14T14:46:26;22.60;1.00
6210;DHT22;3138;52.550;13.148;2023-06-14T14:48:53;22.50;1.00
6210;DHT22;3138;52.550;13.148;2023-06-14T14:51:20;22.60;1.00
6210;DHT22;3138;52.550;13.148;2023-06-14T14:53:47;22.50;1.00
6210;DHT22;3138;52.550;13.148;2023-06-14T14:56:14;22.50;1.00
6210;DHT22;3138;52.550;13.148;2023-06-14T14:58:41;22.40;1.00
6210;DHT22;3138;52.550;13.148;2023-06-14T15:01:09;22.50;1.00
6210;DHT22;3138;52.550;13.148;2023-06-14T15:03:37;22.50;1.50
6210;DHT22;3138;52.550;13.148;2023-06-14T15:06:04;22.60;1.40
6210;DHT22;3138;52.550;13.148;2023-06-14T15:08:31;22.60;1.00
6210;DHT22;3138;52.550;13.148;2023-06-14T15:10:57;22.50;1.00
6210;DHT22;3138;52.550;13.148;2023-06-14T15:13:24;22.60;1.00
6210;DHT22;3138;52.550;13.148;2023-06-14T15:15:51;22.50;1.00
6210;DHT22;3138;52.550;13.148;2023-06-14T15:18:20;22.60;1.00
6210;DHT22;3138;52.550;13.148;2023-06-14T15:20:47;22.50;1.00
6210;DHT22;3138;52.550;13.148;2023-06-14T15:23:14;22.50;1.10
6210;DHT22;3138;52.550;13.148;2023-06-14T15:25:45;22.60;2.00
6210;DHT22;3138;52.550;13.148;2023-06-14T15:28:13;22.50;1.60
6210;DHT22;3138;52.550;13.148;2023-06-14T15:30:40;22.30;1.70
6210;DHT22;3138;52.550;13.148;2023-06-14T15:33:07;22.30;2.70
6210;DHT22;3138;52.550;13.148;2023-06-14T15:35:35;22.10;2.60
6210;DHT22;3138;52.550;13.148;2023-06-14T15:38:02;22.20;2.80
6210;DHT22;3138;52.550;13.148;2023-06-14T15:40:29;22.20;2.50
6210;DHT22;3138;52.550;13.148;2023-06-14T15:42:55;22.10;2.20
6210;DHT22;3138;52.550;13.148;2023-06-14T15:45:22;22.10;3.20
6210;DHT22;3138;52.550;13.148;2023-06-14T15:47:49;22.10;2.70
6210;DHT22;3138;52.550;13.148;2023-06-14T15:50:16;22.10;3.10
6210;DHT22;3138;52.550;13.148;2023-06-14T15:52:44;22.20;2.60
6210;DHT22;3138;52.550;13.148;2023-06-14T15:55:12;22.10;2.70
6210;DHT22;3138;52.550;13.148;2023-06-14T15:57:39;22.20;3.40
6210;DHT22;3138;52.550;13.148;2023-06-14T16:00:06;22.20;2.80
6210;DHT22;3138;52.550;13.148;2023-06-14T16:02:34;22.30;3.60
6210;DHT22;3138;52.550;13.148;2023-06-14T16:05:00;22.30;2.30